Time;durP1;ratioP1;P1;durP2;ratioP2;P2;SDS_P1;SDS_P2;PMS_P1;PMS_P2;Temp;Humidity;BMP_temperature;BMP_pressure;BME280_temperature;BME280_humidity;BME280_pressure;Samples;Min_cycle;Max_cycle;Signal;HPM_P1;HPM_P2
2023/04/29 00:00:16;;;;;;;7.77;3.63;;;5.80;99.90;5.00;100307;;;;600453;239;24132;-76
2023/04/29 00:02:44;;;;;;;6.47;4.20;;;5.90;99.90;5.00;100303;;;;600084;239;24032;-77
2023/04/29 00:05:12;;;;;;;5.20;3.93;;;5.80;99.90;4.90;100302;;;;600531;239;24037;-77
2023/04/29 00:07:40;;;;;;;6.60;4.57;;;5.80;99.90;4.90;100308;;;;600226;239;24075;-77
2023/04/29 00:10:10;;;;;;;7.00;4.33;;;5.80;99.90;4.80;100303;;;;599860;235;24093;-76
2023/04/29 00:12:35;;;;;;;7.10;3.73;;;5.70;99.90;4.80;100289;;;;599840;239;24048;-78
2023/04/29 00:15:07;;;;;;;5.77;4.13;;;5.70;99.90;4.70;100297;;;;599811;239;24068;-78
2023/04/29 00:17:31;;;;;;;4.70;4.00;;;5.60;99.90;4.70;100292;;;;599659;239;24020;-80
2023/04/29 00:19:59;;;;;;;4.33;3.93;;;5.60;99.90;4.70;100289;;;;599851;239;24142;-75
2023/04/29 00:22:27;;;;;;;5.00;3.80;;;5.60;99.90;4.70;100288;;;;600268;239;24072;-75
2023/04/29 00:24:58;;;;;;;7.10;3.63;;;5.60;99.90;4.60;100285;;;;600023;239;24058;-75
2023/04/29 00:27:23;;;;;;;7.83;3.90;;;5.50;99.90;4.60;100281;;;;600067;239;24064;-77
2023/04/29 00:29:50;;;;;;;4.43;2.80;;;5.40;99.90;4.60;100287;;;;599935;239;25172;-79
2023/04/29 00:32:18;;;;;;;6.50;3.30;;;5.40;99.90;4.50;100280;;;;600296;239;24062;-78
2023/04/29 00:34:47;;;;;;;4.93;3.50;;;5.40;99.90;4.50;100272;;;;588800;243;24084;-78
2023/04/29 00:37:17;;;;;;;6.23;3.73;;;5.40;99.90;4.50;100280;;;;595600;241;24095;-79
2023/04/29 00:39:42;;;;;;;6.77;3.73;;;5.40;99.90;4.50;100283;;;;599812;239;24067;-76
2023/04/29 00:42:10;;;;;;;5.70;3.83;;;5.30;99.90;4.50;100283;;;;600193;239;24056;-78
2023/04/29 00:44:38;;;;;;;10.63;4.30;;;5.30;99.90;4.40;100271;;;;601573;237;24092;-78
2023/04/29 00:47:10;;;;;;;6.73;4.03;;;5.30;99.90;4.40;100276;;;;601141;238;24071;-76
2023/04/29 00:49:33;;;;;;;4.17;3.10;;;5.30;99.90;4.30;100271;;;;600978;239;24126;-80
2023/04/29 00:52:02;;;;;;;3.73;3.43;;;5.20;99.90;4.30;100265;;;;600635;238;24068;-77
2023/04/29 00:54:30;;;;;;;5.33;3.73;;;5.20;99.90;4.30;100271;;;;600707;239;24083;-75
2023/04/29 00:57:04;;;;;;;6.93;3.47;;;5.10;99.90;4.20;100265;;;;600260;239;24140;-73
2023/04/29 00:59:32;;;;;;;8.20;4.27;;;5.10;99.90;4.10;100266;;;;599745;239;24055;-75
2023/04/29 01:02:02;;;;;;;6.53;3.80;;;5.10;99.90;4.10;100264;;;;600452;239;24090;-74
2023/04/29 01:04:30;;;;;;;4.33;3.90;;;5.00;99.90;4.00;100268;;;;599811;239;24074;-75
2023/04/29 01:07:13;;;;;;;3.43;3.07;;;5.00;99.90;4.00;100273;;;;600354;239;24066;-76
2023/04/29 01:10:01;;;;;;;4.47;4.07;;;4.90;99.90;4.00;100258;;;;599918;239;24097;-76
2023/04/29 01:12:52;;;;;;;7.63;4.67;;;4.90;99.90;3.90;100255;;;;600645;239;24112;-77
2023/04/29 01:15:24;;;;;;;6.03;4.90;;;4.90;99.90;3.90;100257;;;;600196;239;24151;-74
2023/04/29 01:18:01;;;;;;;7.47;5.50;;;4.80;99.90;3.80;100254;;;;600171;239;24043;-76
2023/04/29 01:20:29;;;;;;;8.97;4.90;;;4.70;99.90;3.80;100257;;;;599534;239;24033;-74
2023/04/29 01:22:57;;;;;;;8.60;5.50;;;4.70;99.90;3.70;100249;;;;600359;239;24093;-79
2023/04/29 01:25:26;;;;;;;10.27;5.83;;;4.70;99.90;3.70;100246;;;;600003;239;24059;-78
2023/04/29 01:28:02;;;;;;;9.60;5.67;;;4.60;99.90;3.70;100249;;;;600257;239;24085;-76
2023/04/29 01:30:41;;;;;;;6.97;4.87;;;4.60;99.90;3.80;100251;;;;598342;239;24046;-75
2023/04/29 01:33:58;;;;;;;10.40;5.80;;;4.70;99.90;3.80;100242;;;;599971;239;24109;-77
2023/04/29 01:36:50;;;;;;;6.70;5.63;;;4.70;99.90;3.80;100244;;;;599866;239;24048;-77
2023/04/29 01:39:21;;;;;;;10.30;6.03;;;4.70;99.90;3.80;100245;;;;595547;239;24089;-76
2023/04/29 01:42:00;;;;;;;7.07;5.90;;;4.70;99.90;3.90;100246;;;;600143;238;24076;-74
2023/04/29 01:44:27;;;;;;;8.57;5.63;;;4.80;99.90;3.90;100235;;;;600231;239;24078;-76
2023/04/29 01:46:55;;;;;;;8.57;5.40;;;4.80;99.90;4.00;100240;;;;599799;239;24103;-77
2023/04/29 01:49:30;;;;;;;6.10;4.87;;;4.80;99.90;4.00;100238;;;;600253;239;24034;-75
2023/04/29 01:51:55;;;;;;;6.90;4.87;;;4.90;99.90;4.10;100243;;;;599757;239;24090;-77
2023/04/29 01:54:25;;;;;;;5.57;3.97;;;4.90;99.90;4.10;100236;;;;600282;239;24050;-74
2023/04/29 01:56:51;;;;;;;5.80;3.67;;;5.00;99.90;4.10;100229;;;;601686;237;24050;-73
2023/04/29 01:59:18;;;;;;;7.27;4.57;;;5.00;99.90;4.20;100232;;;;600787;239;24081;-74
2023/04/29 02:01:46;;;;;;;5.63;4.27;;;5.00;99.90;4.20;100228;;;;601158;238;24065;-77
2023/04/29 02:04:14;;;;;;;8.43;4.20;;;5.00;99.90;4.20;100218;;;;601182;238;24035;-74
2023/04/29 02:06:45;;;;;;;3.77;3.37;;;5.10;99.90;4.20;100217;;;;600229;235;24098;-75
2023/04/29 02:09:10;;;;;;;7.87;4.10;;;5.10;99.90;4.10;100206;;;;600912;239;24071;-75
2023/04/29 02:11:38;;;;;;;5.00;3.73;;;5.10;99.90;4.20;100205;;;;600507;239;24101;-75
2023/04/29 02:14:05;;;;;;;7.00;3.33;;;5.10;99.90;4.30;100214;;;;600573;239;24016;-75
2023/04/29 02:16:33;;;;;;;6.63;4.00;;;5.10;99.90;4.30;100213;;;;600550;239;24124;-76
2023/04/29 02:19:01;;;;;;;5.47;3.70;;;5.20;99.90;4.30;100214;;;;600889;239;24071;-76
2023/04/29 02:21:30;;;;;;;5.83;3.60;;;5.30;99.90;4.40;100212;;;;600211;239;24115;-75
2023/04/29 02:23:58;;;;;;;3.67;3.30;;;5.20;99.90;4.40;100208;;;;600634;239;24055;-74
2023/04/29 02:26:26;;;;;;;7.00;3.63;;;5.30;99.90;4.50;100204;;;;600751;239;24051;-77
2023/04/29 02:28:56;;;;;;;4.83;3.77;;;5.30;99.90;4.40;100206;;;;600737;239;24047;-76
2023/04/29 02:31:21;;;;;;;3.97;3.40;;;5.30;99.90;4.40;100203;;;;599807;239;24105;-75
2023/04/29 02:33:49;;;;;;;7.23;5.07;;;5.30;99.90;4.40;100207;;;;595114;239;35029;-75
2023/04/29 02:36:17;;;;;;;7.73;3.87;;;5.30;99.90;4.40;100191;;;;599686;239;25457;-75
2023/04/29 02:38:45;;;;;;;4.83;3.60;;;5.30;99.90;4.40;100200;;;;600111;239;24027;-75
2023/04/29 02:41:19;;;;;;;10.23;4.03;;;5.30;99.90;4.40;100193;;;;599707;239;24047;-74
2023/04/29 02:43:47;;;;;;;4.80;3.40;;;5.30;99.90;4.40;100196;;;;600213;239;24100;-75
2023/04/29 02:46:18;;;;;;;4.50;3.50;;;5.30;99.90;4.40;100185;;;;599718;239;24106;-75
2023/04/29 02:48:43;;;;;;;6.80;4.17;;;5.30;99.90;4.40;100182;;;;600178;238;24079;-74
2023/04/29 02:51:10;;;;;;;10.33;5.27;;;5.30;99.90;4.40;100180;;;;599504;239;24076;-75
2023/04/29 02:53:38;;;;;;;7.20;3.87;;;5.30;99.90;4.30;100184;;;;600096;239;24082;-74
2023/04/29 02:56:06;;;;;;;7.30;4.00;;;5.30;99.90;4.30;100185;;;;599871;239;24097;-75
2023/04/29 02:58:34;;;;;;;5.70;4.23;;;5.30;99.90;4.40;100188;;;;599773;239;24098;-74
2023/04/29 03:01:03;;;;;;;6.30;3.83;;;5.30;99.90;4.40;100182;;;;600052;239;24104;-74
2023/04/29 03:03:30;;;;;;;5.43;3.90;;;5.30;99.90;4.40;100179;;;;599637;239;24087;-75
2023/04/29 03:05:58;;;;;;;4.27;3.30;;;5.30;99.90;4.50;100182;;;;600126;239;24113;-75
2023/04/29 03:08:26;;;;;;;8.03;4.10;;;5.40;99.90;4.50;100173;;;;601361;237;24089;-75
2023/04/29 03:10:53;;;;;;;6.23;3.33;;;5.40;99.90;4.50;100178;;;;601171;238;24074;-74
2023/04/29 03:13:21;;;;;;;6.53;3.77;;;5.40;99.90;4.60;100187;;;;600679;238;24085;-74
2023/04/29 03:15:49;;;;;;;8.33;4.53;;;5.50;99.90;4.60;100195;;;;600940;238;24078;-75
2023/04/29 03:18:17;;;;;;;6.03;4.20;;;5.50;99.90;4.60;100188;;;;600277;239;24065;-75
2023/04/29 03:20:45;;;;;;;6.70;3.77;;;5.50;99.90;4.70;100191;;;;600760;239;24027;-77
2023/04/29 03:23:13;;;;;;;10.73;4.00;;;5.60;99.90;4.70;100183;;;;600293;239;24042;-75
2023/04/29 03:25:41;;;;;;;7.67;4.10;;;5.60;99.90;4.70;100195;;;;600464;239;24075;-78
2023/04/29 03:28:09;;;;;;;7.40;4.00;;;5.60;99.90;4.70;100182;;;;600069;234;24066;-75
2023/04/29 03:30:37;;;;;;;4.83;3.60;;;5.70;99.90;4.80;100178;;;;600541;239;24045;-77
2023/04/29 03:33:05;;;;;;;7.60;3.87;;;5.70;99.90;4.80;100177;;;;600077;239;25091;-75
2023/04/29 03:35:33;;;;;;;9.10;3.77;;;5.70;99.90;4.80;100176;;;;600401;239;24097;-74
2023/04/29 03:38:01;;;;;;;6.00;3.93;;;5.70;99.90;4.80;100179;;;;600016;239;24055;-75
2023/04/29 03:40:29;;;;;;;7.73;4.57;;;5.70;99.90;4.90;100181;;;;600400;239;24055;-75
2023/04/29 03:42:59;;;;;;;8.67;4.70;;;5.80;99.90;5.00;100175;;;;599957;239;24035;-73
2023/04/29 03:45:24;;;;;;;6.77;5.10;;;5.80;99.90;5.00;100177;;;;599872;239;24080;-73
2023/04/29 03:47:53;;;;;;;4.70;3.70;;;5.80;99.90;5.10;100173;;;;599605;239;24046;-74
2023/04/29 03:50:20;;;;;;;6.23;4.10;;;5.90;99.90;5.10;100177;;;;600028;239;24082;-75
2023/04/29 03:52:48;;;;;;;5.13;3.67;;;6.00;99.90;5.20;100172;;;;599648;239;24063;-78
2023/04/29 03:55:17;;;;;;;5.23;3.60;;;6.10;99.90;5.20;100176;;;;600132;239;24071;-75
2023/04/29 03:57:44;;;;;;;6.13;3.63;;;6.10;99.90;5.30;100179;;;;599701;239;24073;-77
2023/04/29 04:00:13;;;;;;;4.90;3.40;;;6.10;99.90;5.30;100178;;;;599806;239;24094;-75
2023/04/29 04:02:40;;;;;;;4.93;3.80;;;6.20;99.90;5.40;100183;;;;600019;239;24050;-75
2023/04/29 04:05:09;;;;;;;7.57;3.77;;;6.30;99.90;5.50;100175;;;;599755;239;24087;-77
2023/04/29 04:07:36;;;;;;;4.43;3.50;;;6.30;99.90;5.60;100179;;;;600325;239;24031;-77
2023/04/29 04:10:04;;;;;;;4.77;3.23;;;6.40;99.90;5.60;100170;;;;599802;239;24047;-77
2023/04/29 04:12:32;;;;;;;5.57;3.77;;;6.50;99.90;5.70;100182;;;;600360;239;24128;-79
2023/04/29 04:15:00;;;;;;;5.53;4.03;;;6.60;99.90;5.80;100173;;;;599752;239;24048;-80
2023/04/29 04:17:31;;;;;;;8.43;3.77;;;6.70;99.90;5.90;100162;;;;600082;239;24051;-79
2023/04/29 04:19:56;;;;;;;5.67;3.33;;;6.70;99.90;5.90;100169;;;;600985;237;24116;-79
2023/04/29 04:22:24;;;;;;;5.37;4.10;;;6.70;99.90;6.00;100178;;;;601291;238;24038;-79
2023/04/29 04:24:52;;;;;;;9.57;5.63;;;6.80;99.90;6.00;100167;;;;595469;238;35338;-74
2023/04/29 04:27:20;;;;;;;7.40;4.87;;;6.90;99.90;6.10;100169;;;;600900;239;24059;-78
2023/04/29 04:29:48;;;;;;;7.80;4.40;;;6.90;99.90;6.20;100161;;;;600767;239;24032;-78
2023/04/29 04:32:16;;;;;;;4.93;3.90;;;7.00;99.90;6.30;100166;;;;600720;239;24050;-79
2023/04/29 04:34:43;;;;;;;10.87;6.03;;;7.10;99.90;6.50;100166;;;;595045;239;34953;-78
2023/04/29 04:37:11;;;;;;;6.40;4.77;;;7.30;99.90;6.60;100169;;;;600515;239;24078;-79
2023/04/29 04:39:39;;;;;;;5.67;4.43;;;7.40;99.90;6.80;100169;;;;600022;239;24068;-78
2023/04/29 04:42:07;;;;;;;7.03;5.07;;;7.60;99.90;6.90;100161;;;;600525;239;24065;-78
2023/04/29 04:44:38;;;;;;;6.17;4.27;;;7.70;99.90;7.20;100160;;;;600178;239;24090;-77
2023/04/29 04:47:04;;;;;;;7.07;4.63;;;7.90;99.90;7.40;100167;;;;600286;239;24037;-76
2023/04/29 04:49:31;;;;;;;6.77;3.73;;;8.30;99.90;7.60;100168;;;;600015;239;24121;-79
2023/04/29 04:51:59;;;;;;;7.63;4.63;;;8.30;99.90;7.80;100162;;;;600376;239;24063;-75
2023/04/29 04:54:27;;;;;;;7.70;4.20;;;8.50;99.90;7.90;100162;;;;599992;239;24043;-75
2023/04/29 04:56:55;;;;;;;9.37;4.90;;;8.70;99.90;8.10;100165;;;;600116;239;24093;-78
2023/04/29 04:59:23;;;;;;;6.83;4.33;;;8.90;99.90;8.20;100165;;;;599636;239;24109;-75
2023/04/29 05:01:51;;;;;;;7.83;4.83;;;9.00;99.90;8.30;100169;;;;600170;239;24043;-75
2023/04/29 05:04:19;;;;;;;7.27;4.37;;;9.10;99.90;8.40;100162;;;;599706;239;24070;-80
2023/04/29 05:06:47;;;;;;;7.97;5.43;;;9.20;99.90;8.40;100171;;;;600148;239;24094;-78
2023/04/29 05:09:15;;;;;;;7.93;4.60;;;9.20;99.90;8.50;100168;;;;599702;239;24097;-77
2023/04/29 05:11:42;;;;;;;8.07;4.73;;;9.30;99.90;8.60;100163;;;;600010;239;24067;-75
2023/04/29 05:14:10;;;;;;;7.67;5.20;;;9.30;99.90;8.50;100162;;;;599783;239;24117;-75
2023/04/29 05:16:42;;;;;;;9.80;5.07;;;9.30;99.90;8.50;100168;;;;600170;239;24074;-77
2023/04/29 05:19:08;;;;;;;8.37;4.40;;;9.30;99.90;8.50;100157;;;;599339;239;24054;-74
2023/04/29 05:21:35;;;;;;;9.97;4.93;;;9.30;99.90;8.50;100167;;;;600058;239;24041;-74
2023/04/29 05:24:02;;;;;;;7.17;4.63;;;9.30;99.90;8.60;100171;;;;599733;239;24050;-73
2023/04/29 05:26:30;;;;;;;17.67;4.63;;;9.40;99.90;8.70;100166;;;;599966;239;24039;-75
2023/04/29 05:28:58;;;;;;;5.50;3.93;;;9.40;99.90;8.70;100176;;;;599600;239;24035;-73
2023/04/29 05:31:27;;;;;;;9.30;4.53;;;9.50;99.90;8.80;100172;;;;601657;237;24034;-78
2023/04/29 05:33:54;;;;;;;4.80;3.87;;;9.60;99.90;9.00;100176;;;;600848;238;24089;-74
2023/04/29 05:36:22;;;;;;;5.97;4.67;;;9.70;99.90;9.20;100179;;;;601064;238;24063;-75
2023/04/29 05:38:50;;;;;;;7.97;4.77;;;9.90;99.90;9.50;100170;;;;600552;238;24112;-76
2023/04/29 05:41:18;;;;;;;9.53;6.30;;;10.20;99.90;10.00;100168;;;;595596;239;36575;-75
2023/04/29 05:43:46;;;;;;;9.53;6.50;;;11.00;99.90;10.40;100176;;;;583796;243;36250;-73
2023/04/29 05:46:17;;;;;;;8.40;5.40;;;11.00;99.90;10.50;100173;;;;600570;239;24063;-78
2023/04/29 05:48:42;;;;;;;9.67;5.40;;;11.20;99.90;10.40;100168;;;;600173;239;24107;-74
2023/04/29 05:51:10;;;;;;;9.67;5.30;;;11.30;99.90;10.60;100174;;;;587030;244;24078;-75
2023/04/29 05:53:39;;;;;;;7.27;5.13;;;11.70;99.90;10.90;100178;;;;600474;238;25132;-73
2023/04/29 05:56:07;;;;;;;8.87;5.20;;;11.60;99.90;11.30;100169;;;;595542;241;24061;-74
2023/04/29 05:58:37;;;;;;;10.97;5.50;;;12.00;99.90;11.60;100174;;;;588986;243;24108;-75
2023/04/29 06:01:06;;;;;;;6.90;4.93;;;12.60;98.40;11.90;100172;;;;589056;244;24086;-72
2023/04/29 06:03:36;;;;;;;9.17;5.80;;;12.60;98.40;12.10;100173;;;;588625;244;24096;-74
2023/04/29 06:06:01;;;;;;;8.13;5.33;;;12.80;97.60;12.60;100173;;;;600017;238;24063;-75
2023/04/29 06:08:29;;;;;;;7.33;5.30;;;13.30;96.90;13.10;100170;;;;586784;244;24100;-73
2023/04/29 06:10:57;;;;;;;8.03;5.80;;;13.70;96.10;13.60;100171;;;;587334;244;24062;-75
2023/04/29 06:13:25;;;;;;;8.47;6.10;;;14.20;94.20;14.10;100165;;;;600625;239;24053;-74
2023/04/29 06:15:53;;;;;;;7.50;6.00;;;14.70;92.70;14.50;100171;;;;595945;241;24054;-74
2023/04/29 06:18:21;;;;;;;9.85;6.82;;;15.30;91.30;14.80;100170;;;;580342;245;35138;-75
2023/04/29 06:20:52;;;;;;;7.17;6.47;;;15.50;90.30;15.30;100164;;;;589065;244;24135;-73
2023/04/29 06:23:16;;;;;;;12.00;7.30;;;15.90;88.90;16.00;100176;;;;600228;239;24069;-75
2023/04/29 06:25:44;;;;;;;9.53;6.30;;;16.50;85.30;16.50;100178;;;;600224;239;24075;-75
2023/04/29 06:28:12;;;;;;;11.13;6.40;;;17.00;82.50;17.00;100182;;;;588985;244;24136;-76
2023/04/29 06:30:40;;;;;;;11.73;6.43;;;17.60;79.10;17.20;100173;;;;599793;239;24045;-75
2023/04/29 06:33:08;;;;;;;7.90;6.30;;;17.90;76.40;17.60;100171;;;;599797;239;24063;-75
2023/04/29 06:35:36;;;;;;;7.93;5.77;;;18.20;74.70;18.30;100176;;;;600011;239;24094;-78
2023/04/29 06:38:04;;;;;;;11.13;6.50;;;18.80;73.40;19.20;100174;;;;586651;245;24111;-75
2023/04/29 06:40:32;;;;;;;11.13;6.67;;;20.30;67.00;19.80;100174;;;;586504;244;23193;-75
2023/04/29 06:43:01;;;;;;;11.60;7.47;;;20.30;66.90;19.90;100180;;;;601208;237;24067;-77
2023/04/29 06:45:29;;;;;;;7.60;6.40;;;20.40;62.90;19.60;100183;;;;600873;238;24046;-75
2023/04/29 06:47:57;;;;;;;8.87;6.40;;;20.40;62.90;19.40;100180;;;;595871;241;24052;-76
2023/04/29 06:50:25;;;;;;;8.57;6.50;;;20.20;62.40;19.40;100183;;;;588940;243;23103;-76
2023/04/29 06:52:53;;;;;;;8.97;7.07;;;20.20;62.50;19.50;100184;;;;588695;244;25346;-79
2023/04/29 06:55:24;;;;;;;9.07;7.63;;;20.20;62.20;19.80;100189;;;;588678;240;24142;-78
2023/04/29 06:57:48;;;;;;;10.73;7.53;;;20.40;61.70;20.20;100188;;;;600073;239;24051;-78
2023/04/29 07:00:18;;;;;;;11.27;6.90;;;20.80;60.80;20.80;100176;;;;600472;239;24040;-76
2023/04/29 07:02:44;;;;;;;12.80;7.60;;;21.30;60.80;21.80;100183;;;;586502;244;24108;-74
2023/04/29 07:05:12;;;;;;;12.50;7.50;;;22.20;59.20;22.90;100176;;;;586578;244;24119;-76
2023/04/29 07:07:40;;;;;;;8.03;7.10;;;23.30;56.70;24.00;100180;;;;599852;238;24059;-78
2023/04/29 07:10:12;;;;;;;8.30;7.50;;;25.50;52.30;25.00;100181;;;;595202;241;24071;-78
2023/04/29 07:12:37;;;;;;;9.83;7.93;;;25.40;52.20;25.80;100177;;;;588039;244;23077;-77
2023/04/29 07:15:04;;;;;;;10.50;8.57;;;26.30;50.60;26.00;100184;;;;588269;244;23098;-79
2023/04/29 07:17:32;;;;;;;10.27;8.03;;;26.60;48.70;25.70;100186;;;;588282;244;24084;-78
2023/04/29 07:20:04;;;;;;;8.17;7.27;;;27.10;48.00;26.60;100192;;;;587996;244;23106;-77
2023/04/29 07:22:29;;;;;;;12.33;8.53;;;27.00;47.90;26.80;100192;;;;587719;244;23122;-75
2023/04/29 07:24:57;;;;;;;11.20;8.37;;;27.40;46.80;27.40;100190;;;;587972;244;24131;-76
2023/04/29 07:27:25;;;;;;;9.63;7.97;;;28.00;46.00;27.90;100186;;;;587969;244;23139;-76
2023/04/29 07:29:52;;;;;;;10.60;8.97;;;28.50;45.80;28.10;100198;;;;588489;244;23090;-76
2023/04/29 07:32:21;;;;;;;10.88;9.25;;;28.90;44.50;27.80;100197;;;;583526;243;35163;-76
2023/04/29 07:34:48;;;;;;;11.88;9.30;;;28.60;44.70;27.70;100200;;;;588455;244;24114;-75
2023/04/29 07:37:16;;;;;;;10.25;9.23;;;28.60;44.90;28.50;100199;;;;588570;244;23098;-77
2023/04/29 07:39:45;;;;;;;11.68;9.25;;;29.70;43.10;29.10;100190;;;;599683;239;23053;-76
2023/04/29 07:42:13;;;;;;;12.63;9.43;;;29.60;43.00;29.40;100192;;;;584706;245;23097;-76
2023/04/29 07:44:44;;;;;;;11.20;9.63;;;30.10;42.60;30.00;100189;;;;588092;244;23118;-78
2023/04/29 07:47:09;;;;;;;11.07;8.43;;;31.40;41.90;30.90;100198;;;;588671;240;23079;-76
2023/04/29 07:49:40;;;;;;;11.60;9.65;;;31.30;41.80;31.70;100199;;;;588713;244;23094;-76
2023/04/29 07:52:09;;;;;;;9.80;8.85;;;32.30;40.60;32.40;100196;;;;599500;239;23077;-76
2023/04/29 07:54:37;;;;;;;9.85;8.93;;;33.80;39.00;33.30;100194;;;;585964;244;23055;-75
2023/04/29 07:57:03;;;;;;;11.15;9.50;;;33.80;39.00;33.80;100203;;;;589187;243;23129;-77
2023/04/29 07:59:33;;;;;;;10.05;9.10;;;34.50;38.50;34.20;100199;;;;589578;243;23147;-78
2023/04/29 08:02:01;;;;;;;10.88;8.90;;;35.00;37.60;34.40;100202;;;;588589;243;23126;-75
2023/04/29 08:04:29;;;;;;;12.35;8.90;;;35.20;37.50;34.60;100206;;;;599795;239;23110;-74
2023/04/29 08:06:53;;;;;;;10.00;9.00;;;35.40;36.90;34.50;100203;;;;600161;239;23059;-74
2023/04/29 08:09:21;;;;;;;9.43;8.63;;;35.40;36.80;34.30;100210;;;;600256;239;23094;-76
2023/04/29 08:11:49;;;;;;;10.48;9.40;;;35.20;36.60;34.10;100202;;;;600025;239;23069;-76
2023/04/29 08:14:17;;;;;;;17.35;10.00;;;34.80;37.10;33.60;100203;;;;595364;237;23047;-75
2023/04/29 08:16:49;;;;;;;11.02;9.40;;;34.80;37.00;33.60;100201;;;;600601;238;23085;-76
2023/04/29 08:19:13;;;;;;;12.13;10.00;;;34.70;37.40;34.30;100201;;;;594381;239;34972;-75
2023/04/29 08:21:41;;;;;;;11.05;9.30;;;35.20;37.10;34.90;100198;;;;595792;241;23053;-77
2023/04/29 08:24:10;;;;;;;10.40;9.50;;;35.70;35.80;34.50;100196;;;;588460;243;24095;-76
2023/04/29 08:26:38;;;;;;;13.52;10.18;;;35.60;35.70;32.80;100201;;;;588230;244;23086;-77
2023/04/29 08:29:06;;;;;;;11.12;9.82;;;34.50;36.70;32.40;100193;;;;588831;244;24103;-77
2023/04/29 08:31:37;;;;;;;10.10;9.10;;;33.80;37.40;32.90;100186;;;;599935;239;23084;-77
2023/04/29 08:34:01;;;;;;;11.07;9.45;;;33.90;38.10;33.40;100186;;;;586411;245;23079;-80
2023/04/29 08:36:32;;;;;;;10.50;9.43;;;34.20;37.30;32.40;100185;;;;586571;244;23106;-77
2023/04/29 08:38:57;;;;;;;10.05;9.15;;;33.70;37.60;31.00;100184;;;;599543;239;23084;-80
2023/04/29 08:41:30;;;;;;;13.00;9.88;;;31.10;39.90;29.00;100176;;;;594976;241;23052;-80
2023/04/29 08:43:54;;;;;;;10.77;9.73;;;30.90;39.80;28.90;100177;;;;587701;244;23117;-77
2023/04/29 08:46:22;;;;;;;10.80;9.90;;;30.30;41.20;29.60;100179;;;;588177;244;24101;-81
2023/04/29 08:48:53;;;;;;;12.52;9.52;;;30.30;42.40;29.50;100182;;;;588645;244;23141;-76
2023/04/29 08:51:18;;;;;;;11.15;10.25;;;30.30;41.80;29.90;100182;;;;599253;239;23046;-79
2023/04/29 08:53:47;;;;;;;12.23;10.75;;;30.50;41.30;29.50;100186;;;;588594;244;23120;-80
2023/04/29 08:56:16;;;;;;;10.43;9.48;;;30.50;41.20;29.40;100179;;;;588070;244;23106;-80
2023/04/29 08:58:43;;;;;;;11.65;10.13;;;30.30;41.80;29.30;100183;;;;599086;239;25632;-77
2023/04/29 09:01:14;;;;;;;14.45;9.93;;;30.10;41.80;28.80;100176;;;;588728;244;23083;-79
2023/04/29 09:03:51;;;;;;;11.40;10.05;;;29.90;42.00;28.80;100170;;;;587929;244;23082;-80
2023/04/29 09:06:18;;;;;;;13.88;11.00;;;29.80;42.40;28.70;100175;;;;589765;242;23081;-79
2023/04/29 09:08:50;;;;;;;13.20;11.57;;;29.60;42.30;28.40;100174;;;;589335;243;23111;-81
2023/04/29 09:11:16;;;;;;;13.48;10.63;;;29.30;42.50;28.20;100173;;;;589209;244;23117;-82
2023/04/29 09:13:41;;;;;;;12.23;10.95;;;29.10;42.80;27.70;100170;;;;588483;244;23147;-81
2023/04/29 09:16:16;;;;;;;11.90;10.43;;;28.80;43.40;27.30;100172;;;;589128;243;24179;-80
2023/04/29 09:18:46;;;;;;;14.52;10.98;;;28.30;43.50;26.90;100169;;;;588126;244;24115;-79
2023/04/29 09:21:16;;;;;;;13.00;11.60;;;27.90;44.30;27.00;100179;;;;588743;244;24060;-78
2023/04/29 09:23:48;;;;;;;16.53;11.03;;;27.80;44.80;26.90;100165;;;;588382;243;23082;-78
2023/04/29 09:26:12;;;;;;;13.83;11.90;;;27.70;44.90;26.80;100166;;;;588823;243;23070;-78
2023/04/29 09:28:43;;;;;;;14.63;11.20;;;27.70;45.90;26.70;100165;;;;588339;243;23082;-78
2023/04/29 09:31:12;;;;;;;15.07;11.60;;;27.60;45.60;26.30;100167;;;;588471;244;23102;-79
2023/04/29 09:33:57;;;;;;;12.63;11.03;;;27.40;45.60;26.10;100164;;;;588046;244;23075;-77
2023/04/29 09:36:37;;;;;;;15.77;11.77;;;27.10;46.50;25.90;100166;;;;588063;244;23160;-79
2023/04/29 09:39:10;;;;;;;11.70;10.60;;;26.90;47.10;26.00;100163;;;;588503;244;24128;-80
2023/04/29 09:41:34;;;;;;;13.63;11.47;;;27.00;47.20;26.20;100192;;;;587381;244;23086;-79
2023/04/29 09:44:04;;;;;;;13.77;11.87;;;27.00;47.20;26.20;100186;;;;588468;244;24108;-79
2023/04/29 09:46:36;;;;;;;12.70;11.60;;;27.00;47.50;26.10;100197;;;;588142;244;23122;-81
2023/04/29 09:49:06;;;;;;;13.83;11.03;;;27.00;47.40;25.80;100183;;;;588209;244;23104;-77
2023/04/29 09:51:31;;;;;;;13.97;11.43;;;26.80;47.90;25.90;100184;;;;587928;244;23081;-79
2023/04/29 09:54:03;;;;;;;13.07;11.77;;;26.80;47.90;25.60;100181;;;;588472;244;23086;-80
2023/04/29 09:56:29;;;;;;;13.37;11.87;;;26.30;48.20;25.30;100174;;;;587672;244;23101;-80
2023/04/29 09:58:56;;;;;;;15.17;12.70;;;26.10;48.80;25.00;100180;;;;588038;244;23097;-78
2023/04/29 10:01:24;;;;;;;17.73;13.17;;;26.10;48.80;24.60;100171;;;;587270;244;23086;-77
2023/04/29 10:03:56;;;;;;;14.10;11.97;;;25.60;49.80;24.50;100169;;;;588096;244;23075;-77
2023/04/29 10:06:25;;;;;;;13.33;12.00;;;25.50;49.70;24.20;100173;;;;588578;244;23127;-76
2023/04/29 10:08:54;;;;;;;14.10;12.13;;;24.80;50.70;23.50;100171;;;;588487;244;23138;-74
2023/04/29 10:11:18;;;;;;;12.40;11.03;;;24.70;51.30;22.80;100173;;;;588620;244;23112;-75
2023/04/29 10:13:46;;;;;;;15.40;12.20;;;24.00;51.80;22.30;100182;;;;587829;244;24054;-76
2023/04/29 10:16:14;;;;;;;15.00;11.30;;;23.40;53.10;21.90;100175;;;;588782;242;23148;-78
2023/04/29 10:18:42;;;;;;;13.10;11.43;;;22.80;54.30;22.00;100174;;;;588889;243;23082;-76
2023/04/29 10:21:10;;;;;;;11.97;10.67;;;22.70;55.00;22.40;100169;;;;589393;244;24142;-79
2023/04/29 10:23:38;;;;;;;11.70;10.23;;;23.00;54.70;22.50;100181;;;;589012;243;24061;-78
2023/04/29 10:26:08;;;;;;;12.90;11.23;;;23.20;54.20;22.40;100174;;;;589297;243;24073;-77
2023/04/29 10:28:33;;;;;;;14.23;10.73;;;23.10;54.10;21.80;100179;;;;588669;244;24071;-76
2023/04/29 10:31:05;;;;;;;14.10;11.00;;;22.70;54.80;21.30;100169;;;;589182;243;24048;-78
2023/04/29 10:33:32;;;;;;;18.97;11.53;;;22.20;55.70;20.80;100168;;;;588672;244;24100;-79
2023/04/29 10:36:04;;;;;;;15.97;10.47;;;21.70;56.70;20.30;100158;;;;588866;244;23081;-76
2023/04/29 10:38:33;;;;;;;11.83;10.03;;;21.20;58.00;20.20;100156;;;;588469;244;23078;-75
2023/04/29 10:41:01;;;;;;;20.87;12.40;;;20.90;58.90;20.00;100157;;;;600692;239;24055;-76
2023/04/29 10:43:32;;;;;;;21.17;10.77;;;20.60;59.60;20.00;100155;;;;589076;244;24082;-76
2023/04/29 10:46:27;;;;;;;13.27;10.83;;;20.50;60.10;19.90;100153;;;;600405;239;24062;-76
2023/04/29 10:49:01;;;;;;;13.30;10.67;;;20.40;60.50;19.80;100156;;;;600144;238;24112;-74
2023/04/29 10:51:41;;;;;;;12.43;10.50;;;20.40;60.70;19.50;100161;;;;588717;244;24100;-76
2023/04/29 10:54:24;;;;;;;18.43;11.83;;;20.20;61.60;19.30;100156;;;;588277;244;24097;-75
2023/04/29 10:56:55;;;;;;;17.17;10.77;;;19.90;62.80;19.00;100160;;;;588190;244;23089;-78
2023/04/29 10:59:28;;;;;;;17.40;11.23;;;19.70;63.90;18.70;100157;;;;587999;244;23121;-78
2023/04/29 11:01:57;;;;;;;13.00;10.87;;;19.10;66.90;18.50;100149;;;;588429;244;23089;-74
2023/04/29 11:04:25;;;;;;;20.43;10.17;;;19.00;66.80;18.20;100157;;;;588695;244;23082;-75
2023/04/29 11:06:57;;;;;;;16.53;11.10;;;18.90;68.30;18.00;100150;;;;588364;244;24119;-75
2023/04/29 11:09:24;;;;;;;18.63;10.47;;;18.60;69.40;17.80;100146;;;;588813;244;23116;-76
2023/04/29 11:12:03;;;;;;;11.63;9.93;;;18.40;70.20;17.80;100151;;;;588353;244;23085;-78
2023/04/29 11:14:40;;;;;;;14.30;10.43;;;18.40;70.70;17.80;100149;;;;599462;239;24036;-75
2023/04/29 11:17:10;;;;;;;13.83;9.93;;;18.30;71.10;17.70;100146;;;;589241;243;24052;-78
2023/04/29 11:19:50;;;;;;;11.87;10.57;;;18.20;71.50;18.00;100149;;;;588950;243;24068;-78